sensor_id;sensor_type;location;lat;lon;timestamp;temperature;humidity
20487;DHT22;10402;49.012;8.370;2023-02-15T00:01:29;2.50;95.10
20487;DHT22;10402;49.012;8.370;2023-02-15T00:03:54;2.40;94.90
20487;DHT22;10402;49.012;8.370;2023-02-15T00:06:20;2.40;94.90
20487;DHT22;10402;49.012;8.370;2023-02-15T00:08:46;2.30;94.90
20487;DHT22;10402;49.012;8.370;2023-02-15T00:11:15;2.30;95.10
20487;DHT22;10402;49.012;8.370;2023-02-15T00:13:41;2.30;95.10
20487;DHT22;10402;49.012;8.370;2023-02-15T00:16:09;2.30;95.30
20487;DHT22;10402;49.012;8.370;2023-02-15T00:18:35;2.30;95.20
20487;DHT22;10402;49.012;8.370;2023-02-15T00:21:06;2.30;95.20
20487;DHT22;10402;49.012;8.370;2023-02-15T00:23:32;2.30;95.40
20487;DHT22;10402;49.012;8.370;2023-02-15T00:26:10;2.40;95.40
20487;DHT22;10402;49.012;8.370;2023-02-15T00:28:36;2.50;95.20
20487;DHT22;10402;49.012;8.370;2023-02-15T00:31:07;2.40;95.10
20487;DHT22;10402;49.012;8.370;2023-02-15T00:33:33;2.50;95.40
20487;DHT22;10402;49.012;8.370;2023-02-15T00:36:00;2.50;95.20
20487;DHT22;10402;49.012;8.370;2023-02-15T00:38:30;2.50;95.10
20487;DHT22;10402;49.012;8.370;2023-02-15T00:40:57;2.60;95.10
20487;DHT22;10402;49.012;8.370;2023-02-15T00:43:24;2.50;95.10
20487;DHT22;10402;49.012;8.370;2023-02-15T00:45:50;2.50;95.00
20487;DHT22;10402;49.012;8.370;2023-02-15T00:48:16;2.50;95.10
20487;DHT22;10402;49.012;8.370;2023-02-15T00:50:45;2.60;95.20
20487;DHT22;10402;49.012;8.370;2023-02-15T00:53:11;2.60;95.10
20487;DHT22;10402;49.012;8.370;2023-02-15T00:55:37;2.50;95.10
20487;DHT22;10402;49.012;8.370;2023-02-15T00:58:02;2.60;95.20
20487;DHT22;10402;49.012;8.370;2023-02-15T01:00:28;2.60;95.30
20487;DHT22;10402;49.012;8.370;2023-02-15T01:02:53;2.60;95.10
20487;DHT22;10402;49.012;8.370;2023-02-15T01:05:19;2.60;95.10
20487;DHT22;10402;49.012;8.370;2023-02-15T01:07:44;2.60;95.10
20487;DHT22;10402;49.012;8.370;2023-02-15T01:10:10;2.70;95.30
20487;DHT22;10402;49.012;8.370;2023-02-15T01:12:35;2.60;95.10
20487;DHT22;10402;49.012;8.370;2023-02-15T01:15:01;2.60;95.20
20487;DHT22;10402;49.012;8.370;2023-02-15T01:17:26;2.60;95.20
20487;DHT22;10402;49.012;8.370;2023-02-15T01:19:52;2.50;95.30
20487;DHT22;10402;49.012;8.370;2023-02-15T01:22:18;2.60;95.40
20487;DHT22;10402;49.012;8.370;2023-02-15T01:24:44;2.60;95.20
20487;DHT22;10402;49.012;8.370;2023-02-15T01:27:10;2.60;95.20
20487;DHT22;10402;49.012;8.370;2023-02-15T01:29:35;2.60;95.30
20487;DHT22;10402;49.012;8.370;2023-02-15T01:32:01;2.60;95.20
20487;DHT22;10402;49.012;8.370;2023-02-15T01:34:29;2.50;95.20
20487;DHT22;10402;49.012;8.370;2023-02-15T01:36:54;2.50;95.20
20487;DHT22;10402;49.012;8.370;2023-02-15T01:39:20;2.50;95.40
20487;DHT22;10402;49.012;8.370;2023-02-15T01:41:45;2.50;95.50
20487;DHT22;10402;49.012;8.370;2023-02-15T01:47:10;2.50;95.50
20487;DHT22;10402;49.012;8.370;2023-02-15T01:49:38;2.50;95.50
20487;DHT22;10402;49.012;8.370;2023-02-15T01:52:07;2.50;95.50
20487;DHT22;10402;49.012;8.370;2023-02-15T01:54:36;2.50;95.50
20487;DHT22;10402;49.012;8.370;2023-02-15T01:57:10;2.50;95.40
20487;DHT22;10402;49.012;8.370;2023-02-15T01:59:39;2.50;95.40
20487;DHT22;10402;49.012;8.370;2023-02-15T02:02:08;2.50;95.40
20487;DHT22;10402;49.012;8.370;2023-02-15T02:04:56;2.50;95.50
20487;DHT22;10402;49.012;8.370;2023-02-15T02:07:27;2.50;95.60
20487;DHT22;10402;49.012;8.370;2023-02-15T02:09:53;2.50;95.50
20487;DHT22;10402;49.012;8.370;2023-02-15T02:12:19;2.50;95.60
20487;DHT22;10402;49.012;8.370;2023-02-15T02:14:47;2.60;95.70
20487;DHT22;10402;49.012;8.370;2023-02-15T02:20:16;2.60;95.50
20487;DHT22;10402;49.012;8.370;2023-02-15T02:23:08;2.70;95.60
20487;DHT22;10402;49.012;8.370;2023-02-15T02:39:22;2.60;95.50
20487;DHT22;10402;49.012;8.370;2023-02-15T02:42:17;2.60;95.60
20487;DHT22;10402;49.012;8.370;2023-02-15T02:44:48;2.60;95.60
20487;DHT22;10402;49.012;8.370;2023-02-15T02:50:06;2.50;96.00
20487;DHT22;10402;49.012;8.370;2023-02-15T02:55:07;2.60;95.70
20487;DHT22;10402;49.012;8.370;2023-02-15T02:57:37;2.60;95.70
20487;DHT22;10402;49.012;8.370;2023-02-15T03:00:05;2.60;95.60
20487;DHT22;10402;49.012;8.370;2023-02-15T03:02:38;2.60;95.60
20487;DHT22;10402;49.012;8.370;2023-02-15T03:05:08;2.50;95.60
20487;DHT22;10402;49.012;8.370;2023-02-15T03:07:36;2.50;95.70
20487;DHT22;10402;49.012;8.370;2023-02-15T03:10:05;2.50;95.80
20487;DHT22;10402;49.012;8.370;2023-02-15T03:12:34;2.50;95.90
20487;DHT22;10402;49.012;8.370;2023-02-15T03:15:01;2.60;95.90
20487;DHT22;10402;49.012;8.370;2023-02-15T03:17:31;2.60;95.70
20487;DHT22;10402;49.012;8.370;2023-02-15T03:20:02;2.60;95.70
20487;DHT22;10402;49.012;8.370;2023-02-15T03:22:33;2.60;95.60
20487;DHT22;10402;49.012;8.370;2023-02-15T03:25:20;2.50;95.60
20487;DHT22;10402;49.012;8.370;2023-02-15T03:27:52;2.40;95.60
20487;DHT22;10402;49.012;8.370;2023-02-15T03:30:20;2.40;95.60
20487;DHT22;10402;49.012;8.370;2023-02-15T03:32:47;2.40;95.80
20487;DHT22;10402;49.012;8.370;2023-02-15T03:35:13;2.40;95.90
20487;DHT22;10402;49.012;8.370;2023-02-15T03:37:43;2.40;95.70
20487;DHT22;10402;49.012;8.370;2023-02-15T03:40:21;2.30;95.80
20487;DHT22;10402;49.012;8.370;2023-02-15T03:43:31;2.30;96.00
20487;DHT22;10402;49.012;8.370;2023-02-15T03:46:05;2.30;96.00
20487;DHT22;10402;49.012;8.370;2023-02-15T03:48:36;2.30;96.00
20487;DHT22;10402;49.012;8.370;2023-02-15T03:51:08;2.40;96.00
20487;DHT22;10402;49.012;8.370;2023-02-15T03:53:54;2.30;95.90
20487;DHT22;10402;49.012;8.370;2023-02-15T03:56:21;2.30;95.90
20487;DHT22;10402;49.012;8.370;2023-02-15T03:58:47;2.30;96.00
20487;DHT22;10402;49.012;8.370;2023-02-15T04:01:40;2.30;96.00
20487;DHT22;10402;49.012;8.370;2023-02-15T04:04:28;2.30;96.00
20487;DHT22;10402;49.012;8.370;2023-02-15T04:06:54;2.30;96.00
20487;DHT22;10402;49.012;8.370;2023-02-15T04:09:20;2.30;96.00
20487;DHT22;10402;49.012;8.370;2023-02-15T04:12:04;2.30;96.00
20487;DHT22;10402;49.012;8.370;2023-02-15T04:14:29;2.20;96.00
20487;DHT22;10402;49.012;8.370;2023-02-15T04:17:13;2.30;96.10
20487;DHT22;10402;49.012;8.370;2023-02-15T04:19:39;2.30;96.20
20487;DHT22;10402;49.012;8.370;2023-02-15T04:22:23;2.30;96.10
20487;DHT22;10402;49.012;8.370;2023-02-15T04:25:07;2.30;96.10
20487;DHT22;10402;49.012;8.370;2023-02-15T04:27:40;2.30;96.20
20487;DHT22;10402;49.012;8.370;2023-02-15T04:30:06;2.30;96.10
20487;DHT22;10402;49.012;8.370;2023-02-15T04:32:33;2.30;96.30
20487;DHT22;10402;49.012;8.370;2023-02-15T04:34:59;2.30;96.10
20487;DHT22;10402;49.012;8.370;2023-02-15T04:37:24;2.40;96.30
20487;DHT22;10402;49.012;8.370;2023-02-15T04:39:50;2.40;96.30
20487;DHT22;10402;49.012;8.370;2023-02-15T04:42:16;2.50;96.20
20487;DHT22;10402;49.012;8.370;2023-02-15T04:44:42;2.50;96.10
20487;DHT22;10402;49.012;8.370;2023-02-15T04:47:07;2.40;96.00
20487;DHT22;10402;49.012;8.370;2023-02-15T04:49:33;2.40;96.00
20487;DHT22;10402;49.012;8.370;2023-02-15T04:51:59;2.40;96.00
20487;DHT22;10402;49.012;8.370;2023-02-15T04:54:24;2.40;96.10
20487;DHT22;10402;49.012;8.370;2023-02-15T04:56:50;2.30;96.00
20487;DHT22;10402;49.012;8.370;2023-02-15T04:59:15;2.30;96.00
20487;DHT22;10402;49.012;8.370;2023-02-15T05:01:41;2.30;96.10
20487;DHT22;10402;49.012;8.370;2023-02-15T05:04:07;2.30;96.20
20487;DHT22;10402;49.012;8.370;2023-02-15T05:06:32;2.30;96.20
20487;DHT22;10402;49.012;8.370;2023-02-15T05:08:58;2.40;96.30
20487;DHT22;10402;49.012;8.370;2023-02-15T05:11:25;2.40;96.40
20487;DHT22;10402;49.012;8.370;2023-02-15T05:13:50;2.50;96.30
20487;DHT22;10402;49.012;8.370;2023-02-15T05:16:16;2.60;96.10
20487;DHT22;10402;49.012;8.370;2023-02-15T05:18:42;2.50;95.90
20487;DHT22;10402;49.012;8.370;2023-02-15T05:21:07;2.50;96.00
20487;DHT22;10402;49.012;8.370;2023-02-15T05:23:33;2.50;96.10
20487;DHT22;10402;49.012;8.370;2023-02-15T05:25:58;2.50;96.10
20487;DHT22;10402;49.012;8.370;2023-02-15T05:28:42;2.50;96.10
20487;DHT22;10402;49.012;8.370;2023-02-15T05:31:11;2.60;96.10
20487;DHT22;10402;49.012;8.370;2023-02-15T05:33:38;2.60;96.10
20487;DHT22;10402;49.012;8.370;2023-02-15T05:36:04;2.70;96.20
20487;DHT22;10402;49.012;8.370;2023-02-15T05:38:30;2.60;96.00
20487;DHT22;10402;49.012;8.370;2023-02-15T05:40:56;2.60;96.00
20487;DHT22;10402;49.012;8.370;2023-02-15T05:43:22;2.60;96.10
20487;DHT22;10402;49.012;8.370;2023-02-15T05:45:49;2.70;96.20
20487;DHT22;10402;49.012;8.370;2023-02-15T05:48:15;2.70;96.20
20487;DHT22;10402;49.012;8.370;2023-02-15T05:50:41;2.70;96.00
20487;DHT22;10402;49.012;8.370;2023-02-15T05:53:07;2.70;96.10
20487;DHT22;10402;49.012;8.370;2023-02-15T05:55:32;2.70;95.90
20487;DHT22;10402;49.012;8.370;2023-02-15T05:57:58;2.60;95.90
20487;DHT22;10402;49.012;8.370;2023-02-15T06:00:23;2.70;96.10
20487;DHT22;10402;49.012;8.370;2023-02-15T06:02:49;2.70;96.10
20487;DHT22;10402;49.012;8.370;2023-02-15T06:05:15;2.60;96.00
20487;DHT22;10402;49.012;8.370;2023-02-15T06:07:43;2.70;96.10
20487;DHT22;10402;49.012;8.370;2023-02-15T06:10:09;2.70;96.20
20487;DHT22;10402;49.012;8.370;2023-02-15T06:12:35;2.70;96.10
20487;DHT22;10402;49.012;8.370;2023-02-15T06:15:01;2.80;96.10
20487;DHT22;10402;49.012;8.370;2023-02-15T06:17:26;2.80;96.00
20487;DHT22;10402;49.012;8.370;2023-02-15T06:19:52;2.80;95.90
20487;DHT22;10402;49.012;8.370;2023-02-15T06:22:17;2.80;95.90
20487;DHT22;10402;49.012;8.370;2023-02-15T06:24:43;2.80;96.00
20487;DHT22;10402;49.012;8.370;2023-02-15T06:27:09;2.80;95.90
20487;DHT22;10402;49.012;8.370;2023-02-15T06:29:35;2.70;95.90
20487;DHT22;10402;49.012;8.370;2023-02-15T06:32:01;2.70;95.80
20487;DHT22;10402;49.012;8.370;2023-02-15T06:34:26;2.70;95.80
20487;DHT22;10402;49.012;8.370;2023-02-15T06:36:52;2.70;95.90
20487;DHT22;10402;49.012;8.370;2023-02-15T06:39:17;2.70;95.90
20487;DHT22;10402;49.012;8.370;2023-02-15T06:41:43;2.70;95.90
20487;DHT22;10402;49.012;8.370;2023-02-15T06:44:08;2.70;95.90
20487;DHT22;10402;49.012;8.370;2023-02-15T06:46:34;2.80;95.90
20487;DHT22;10402;49.012;8.370;2023-02-15T06:48:59;2.70;95.80
20487;DHT22;10402;49.012;8.370;2023-02-15T06:51:25;2.70;95.80
20487;DHT22;10402;49.012;8.370;2023-02-15T06:53:51;2.70;95.70
20487;DHT22;10402;49.012;8.370;2023-02-15T06:56:16;2.60;95.60
20487;DHT22;10402;49.012;8.370;2023-02-15T06:58:42;2.50;95.50
20487;DHT22;10402;49.012;8.370;2023-02-15T07:01:08;2.40;95.70
20487;DHT22;10402;49.012;8.370;2023-02-15T07:03:34;2.40;95.90
20487;DHT22;10402;49.012;8.370;2023-02-15T07:06:02;2.50;96.00
20487;DHT22;10402;49.012;8.370;2023-02-15T07:08:31;2.50;95.90
20487;DHT22;10402;49.012;8.370;2023-02-15T07:10:56;2.50;95.90
20487;DHT22;10402;49.012;8.370;2023-02-15T07:13:42;2.50;95.80
20487;DHT22;10402;49.012;8.370;2023-02-15T07:16:10;2.50;95.70
20487;DHT22;10402;49.012;8.370;2023-02-15T07:18:36;2.50;95.90
20487;DHT22;10402;49.012;8.370;2023-02-15T07:21:02;2.50;95.90
20487;DHT22;10402;49.012;8.370;2023-02-15T07:23:28;2.60;95.90
20487;DHT22;10402;49.012;8.370;2023-02-15T07:26:00;2.60;95.80
20487;DHT22;10402;49.012;8.370;2023-02-15T07:28:26;2.60;95.70
20487;DHT22;10402;49.012;8.370;2023-02-15T07:30:51;2.60;95.80
20487;DHT22;10402;49.012;8.370;2023-02-15T07:33:17;2.60;95.70
20487;DHT22;10402;49.012;8.370;2023-02-15T07:35:49;2.60;95.70
20487;DHT22;10402;49.012;8.370;2023-02-15T07:38:15;2.50;95.70
20487;DHT22;10402;49.012;8.370;2023-02-15T07:40:40;2.60;95.80
20487;DHT22;10402;49.012;8.370;2023-02-15T07:43:06;2.60;95.80
20487;DHT22;10402;49.012;8.370;2023-02-15T07:45:31;2.60;95.80
20487;DHT22;10402;49.012;8.370;2023-02-15T07:47:57;2.60;95.90
20487;DHT22;10402;49.012;8.370;2023-02-15T07:50:23;2.60;95.80
20487;DHT22;10402;49.012;8.370;2023-02-15T07:52:48;2.60;95.70
20487;DHT22;10402;49.012;8.370;2023-02-15T07:55:14;2.70;95.80
20487;DHT22;10402;49.012;8.370;2023-02-15T07:57:47;2.60;95.50
20487;DHT22;10402;49.012;8.370;2023-02-15T08:00:15;2.50;95.60
20487;DHT22;10402;49.012;8.370;2023-02-15T08:02:41;2.50;95.80
20487;DHT22;10402;49.012;8.370;2023-02-15T08:05:07;2.60;95.90
20487;DHT22;10402;49.012;8.370;2023-02-15T08:07:33;2.60;95.80
20487;DHT22;10402;49.012;8.370;2023-02-15T08:09:58;2.70;95.90
20487;DHT22;10402;49.012;8.370;2023-02-15T08:12:27;2.70;95.80
20487;DHT22;10402;49.012;8.370;2023-02-15T08:14:53;2.70;95.80
20487;DHT22;10402;49.012;8.370;2023-02-15T08:17:19;2.80;95.80
20487;DHT22;10402;49.012;8.370;2023-02-15T08:19:45;2.80;95.80
20487;DHT22;10402;49.012;8.370;2023-02-15T08:22:13;2.80;95.70
20487;DHT22;10402;49.012;8.370;2023-02-15T08:24:40;2.80;95.60
20487;DHT22;10402;49.012;8.370;2023-02-15T08:27:08;2.80;95.60
20487;DHT22;10402;49.012;8.370;2023-02-15T08:29:35;2.80;95.60
20487;DHT22;10402;49.012;8.370;2023-02-15T08:32:07;2.80;95.60
20487;DHT22;10402;49.012;8.370;2023-02-15T08:34:39;2.80;95.80
20487;DHT22;10402;49.012;8.370;2023-02-15T08:37:05;2.90;95.60
20487;DHT22;10402;49.012;8.370;2023-02-15T08:39:31;2.80;95.50
20487;DHT22;10402;49.012;8.370;2023-02-15T08:41:57;2.80;95.50
20487;DHT22;10402;49.012;8.370;2023-02-15T08:44:22;2.80;95.60
20487;DHT22;10402;49.012;8.370;2023-02-15T08:46:48;2.80;95.60
20487;DHT22;10402;49.012;8.370;2023-02-15T08:49:19;2.80;95.50
20487;DHT22;10402;49.012;8.370;2023-02-15T08:51:45;2.80;95.60
20487;DHT22;10402;49.012;8.370;2023-02-15T08:54:15;2.90;95.60
20487;DHT22;10402;49.012;8.370;2023-02-15T08:56:42;2.90;95.60
20487;DHT22;10402;49.012;8.370;2023-02-15T08:59:13;2.90;95.40
20487;DHT22;10402;49.012;8.370;2023-02-15T09:01:39;2.90;95.40
20487;DHT22;10402;49.012;8.370;2023-02-15T09:04:07;2.80;95.50
20487;DHT22;10402;49.012;8.370;2023-02-15T09:06:37;2.80;95.60
20487;DHT22;10402;49.012;8.370;2023-02-15T09:09:03;2.90;95.60
20487;DHT22;10402;49.012;8.370;2023-02-15T09:11:32;2.90;95.60
20487;DHT22;10402;49.012;8.370;2023-02-15T09:14:03;3.00;95.60
20487;DHT22;10402;49.012;8.370;2023-02-15T09:16:32;3.00;95.50
20487;DHT22;10402;49.012;8.370;2023-02-15T09:18:58;3.00;95.30
20487;DHT22;10402;49.012;8.370;2023-02-15T09:21:25;3.00;95.40
20487;DHT22;10402;49.012;8.370;2023-02-15T09:23:56;3.10;95.40
20487;DHT22;10402;49.012;8.370;2023-02-15T09:26:23;3.00;95.40
20487;DHT22;10402;49.012;8.370;2023-02-15T09:28:52;3.00;95.40
20487;DHT22;10402;49.012;8.370;2023-02-15T09:31:20;3.10;95.50
20487;DHT22;10402;49.012;8.370;2023-02-15T09:33:47;3.10;95.50
20487;DHT22;10402;49.012;8.370;2023-02-15T09:36:33;3.10;95.50
20487;DHT22;10402;49.012;8.370;2023-02-15T09:44:53;3.10;95.30
20487;DHT22;10402;49.012;8.370;2023-02-15T09:56:01;3.10;95.30
20487;DHT22;10402;49.012;8.370;2023-02-15T10:01:39;3.10;95.20
20487;DHT22;10402;49.012;8.370;2023-02-15T10:04:33;3.10;95.20
20487;DHT22;10402;49.012;8.370;2023-02-15T10:15:41;3.30;95.50
20487;DHT22;10402;49.012;8.370;2023-02-15T10:24:02;3.50;95.10
20487;DHT22;10402;49.012;8.370;2023-02-15T10:26:45;3.60;95.00
20487;DHT22;10402;49.012;8.370;2023-02-15T10:29:35;3.60;95.00
20487;DHT22;10402;49.012;8.370;2023-02-15T10:34:39;3.60;95.00
20487;DHT22;10402;49.012;8.370;2023-02-15T10:45:56;3.80;95.00
20487;DHT22;10402;49.012;8.370;2023-02-15T10:51:03;3.90;94.80
20487;DHT22;10402;49.012;8.370;2023-02-15T11:01:21;3.90;95.00
20487;DHT22;10402;49.012;8.370;2023-02-15T11:06:49;3.90;94.70
20487;DHT22;10402;49.012;8.370;2023-02-15T11:09:18;3.90;94.70
20487;DHT22;10402;49.012;8.370;2023-02-15T11:11:50;4.00;94.70
20487;DHT22;10402;49.012;8.370;2023-02-15T11:14:32;3.90;94.50
20487;DHT22;10402;49.012;8.370;2023-02-15T11:17:06;3.90;94.70
20487;DHT22;10402;49.012;8.370;2023-02-15T11:19:51;4.00;94.90
20487;DHT22;10402;49.012;8.370;2023-02-15T11:22:19;4.00;94.80
20487;DHT22;10402;49.012;8.370;2023-02-15T11:24:46;4.10;94.80
20487;DHT22;10402;49.012;8.370;2023-02-15T11:32:21;4.30;94.70
20487;DHT22;10402;49.012;8.370;2023-02-15T11:37:20;4.30;94.40
20487;DHT22;10402;49.012;8.370;2023-02-15T11:39:50;4.30;94.30
20487;DHT22;10402;49.012;8.370;2023-02-15T11:42:20;4.20;94.30
20487;DHT22;10402;49.012;8.370;2023-02-15T11:45:33;4.20;94.50
20487;DHT22;10402;49.012;8.370;2023-02-15T11:47:38;4.30;94.50
20487;DHT22;10402;49.012;8.370;2023-02-15T11:50:04;4.20;94.40
20487;DHT22;10402;49.012;8.370;2023-02-15T11:52:30;4.20;94.50
20487;DHT22;10402;49.012;8.370;2023-02-15T11:54:56;4.20;94.60
20487;DHT22;10402;49.012;8.370;2023-02-15T12:02:31;4.20;94.50
20487;DHT22;10402;49.012;8.370;2023-02-15T12:05:04;4.20;94.50
20487;DHT22;10402;49.012;8.370;2023-02-15T12:07:35;4.30;94.60
20487;DHT22;10402;49.012;8.370;2023-02-15T12:10:27;4.40;94.60
20487;DHT22;10402;49.012;8.370;2023-02-15T12:13:13;4.50;94.60
20487;DHT22;10402;49.012;8.370;2023-02-15T12:15:43;4.60;94.50
20487;DHT22;10402;49.012;8.370;2023-02-15T12:20:50;4.70;94.30
20487;DHT22;10402;49.012;8.370;2023-02-15T12:23:17;4.60;94.20
20487;DHT22;10402;49.012;8.370;2023-02-15T12:25:53;4.60;94.30
20487;DHT22;10402;49.012;8.370;2023-02-15T12:28:40;4.60;94.10
20487;DHT22;10402;49.012;8.370;2023-02-15T12:31:20;4.70;94.10
20487;DHT22;10402;49.012;8.370;2023-02-15T12:33:46;4.60;94.00
20487;DHT22;10402;49.012;8.370;2023-02-15T12:36:18;4.70;94.10
20487;DHT22;10402;49.012;8.370;2023-02-15T12:39:03;4.80;94.20
20487;DHT22;10402;49.012;8.370;2023-02-15T12:41:28;4.80;94.00
20487;DHT22;10402;49.012;8.370;2023-02-15T12:44:22;4.80;94.00
20487;DHT22;10402;49.012;8.370;2023-02-15T12:49:40;4.80;93.90
20487;DHT22;10402;49.012;8.370;2023-02-15T12:52:23;4.60;93.70
20487;DHT22;10402;49.012;8.370;2023-02-15T12:54:50;4.60;93.90
20487;DHT22;10402;49.012;8.370;2023-02-15T13:00:33;4.60;94.00
20487;DHT22;10402;49.012;8.370;2023-02-15T13:02:46;4.60;94.10
20487;DHT22;10402;49.012;8.370;2023-02-15T13:05:30;4.60;93.90
20487;DHT22;10402;49.012;8.370;2023-02-15T13:07:58;4.60;93.90
20487;DHT22;10402;49.012;8.370;2023-02-15T13:10:27;4.50;93.70
20487;DHT22;10402;49.012;8.370;2023-02-15T13:12:54;4.60;94.00
20487;DHT22;10402;49.012;8.370;2023-02-15T13:15:34;4.70;93.90
20487;DHT22;10402;49.012;8.370;2023-02-15T13:18:02;4.70;93.90
20487;DHT22;10402;49.012;8.370;2023-02-15T13:20:28;4.90;93.90
20487;DHT22;10402;49.012;8.370;2023-02-15T13:22:59;4.90;93.70
20487;DHT22;10402;49.012;8.370;2023-02-15T13:25:28;5.00;93.60
20487;DHT22;10402;49.012;8.370;2023-02-15T13:28:00;5.00;93.60
20487;DHT22;10402;49.012;8.370;2023-02-15T13:30:33;5.10;93.60
20487;DHT22;10402;49.012;8.370;2023-02-15T13:33:06;5.10;93.40
20487;DHT22;10402;49.012;8.370;2023-02-15T13:35:44;5.20;93.60
20487;DHT22;10402;49.012;8.370;2023-02-15T13:38:15;5.30;93.40
20487;DHT22;10402;49.012;8.370;2023-02-15T13:40:55;5.30;93.40
20487;DHT22;10402;49.012;8.370;2023-02-15T13:43:35;5.40;93.40
20487;DHT22;10402;49.012;8.370;2023-02-15T13:48:55;5.40;93.20
20487;DHT22;10402;49.012;8.370;2023-02-15T13:56:59;5.50;93.10
20487;DHT22;10402;49.012;8.370;2023-02-15T13:59:43;5.50;93.10
20487;DHT22;10402;49.012;8.370;2023-02-15T14:04:43;5.60;93.10
20487;DHT22;10402;49.012;8.370;2023-02-15T14:07:30;5.60;93.00
20487;DHT22;10402;49.012;8.370;2023-02-15T14:10:14;5.60;93.00
20487;DHT22;10402;49.012;8.370;2023-02-15T14:18:39;5.60;92.90
20487;DHT22;10402;49.012;8.370;2023-02-15T14:21:31;5.60;93.00
20487;DHT22;10402;49.012;8.370;2023-02-15T14:24:43;5.70;92.80
20487;DHT22;10402;49.012;8.370;2023-02-15T14:27:26;5.70;92.80
20487;DHT22;10402;49.012;8.370;2023-02-15T14:29:57;5.70;92.80
20487;DHT22;10402;49.012;8.370;2023-02-15T14:32:53;5.70;92.80
20487;DHT22;10402;49.012;8.370;2023-02-15T14:35:22;5.70;92.80
20487;DHT22;10402;49.012;8.370;2023-02-15T14:40:38;5.80;92.90
20487;DHT22;10402;49.012;8.370;2023-02-15T14:49:20;5.80;92.60
20487;DHT22;10402;49.012;8.370;2023-02-15T14:59:42;5.80;92.60
20487;DHT22;10402;49.012;8.370;2023-02-15T15:02:13;5.80;92.80
20487;DHT22;10402;49.012;8.370;2023-02-15T15:05:09;5.90;92.80
20487;DHT22;10402;49.012;8.370;2023-02-15T15:07:42;5.90;92.80
20487;DHT22;10402;49.012;8.370;2023-02-15T15:12:50;6.00;92.60
20487;DHT22;10402;49.012;8.370;2023-02-15T15:18:07;6.00;92.60
20487;DHT22;10402;49.012;8.370;2023-02-15T15:20:50;5.90;92.50
20487;DHT22;10402;49.012;8.370;2023-02-15T15:36:26;6.00;92.60
20487;DHT22;10402;49.012;8.370;2023-02-15T15:41:43;6.00;92.50
20487;DHT22;10402;49.012;8.370;2023-02-15T15:50:13;6.00;92.60
20487;DHT22;10402;49.012;8.370;2023-02-15T15:52:47;6.00;92.60
20487;DHT22;10402;49.012;8.370;2023-02-15T15:55:19;6.00;92.60
20487;DHT22;10402;49.012;8.370;2023-02-15T15:57:48;6.00;92.60
20487;DHT22;10402;49.012;8.370;2023-02-15T16:00:44;6.00;92.70
20487;DHT22;10402;49.012;8.370;2023-02-15T16:03:23;5.90;92.60
20487;DHT22;10402;49.012;8.370;2023-02-15T16:05:49;5.90;92.60
20487;DHT22;10402;49.012;8.370;2023-02-15T16:10:55;5.80;92.70
20487;DHT22;10402;49.012;8.370;2023-02-15T16:13:20;5.80;92.80
20487;DHT22;10402;49.012;8.370;2023-02-15T16:15:47;5.80;92.80
20487;DHT22;10402;49.012;8.370;2023-02-15T16:18:19;5.80;92.80
20487;DHT22;10402;49.012;8.370;2023-02-15T16:20:59;5.70;92.80
20487;DHT22;10402;49.012;8.370;2023-02-15T16:26:09;5.70;92.80
20487;DHT22;10402;49.012;8.370;2023-02-15T16:28:38;5.60;92.90
20487;DHT22;10402;49.012;8.370;2023-02-15T16:31:12;5.60;92.90
20487;DHT22;10402;49.012;8.370;2023-02-15T16:33:39;5.60;93.00
20487;DHT22;10402;49.012;8.370;2023-02-15T16:36:10;5.50;93.00
20487;DHT22;10402;49.012;8.370;2023-02-15T16:41:08;5.50;93.00
20487;DHT22;10402;49.012;8.370;2023-02-15T16:43:37;5.40;93.00
20487;DHT22;10402;49.012;8.370;2023-02-15T16:46:06;5.30;93.00
20487;DHT22;10402;49.012;8.370;2023-02-15T16:48:33;5.30;93.10
20487;DHT22;10402;49.012;8.370;2023-02-15T16:51:04;5.30;93.10
20487;DHT22;10402;49.012;8.370;2023-02-15T16:53:29;5.30;93.10
20487;DHT22;10402;49.012;8.370;2023-02-15T16:55:58;5.20;93.10
20487;DHT22;10402;49.012;8.370;2023-02-15T16:58:36;5.20;93.20
20487;DHT22;10402;49.012;8.370;2023-02-15T17:01:03;5.10;93.20
20487;DHT22;10402;49.012;8.370;2023-02-15T17:03:31;5.10;93.30
20487;DHT22;10402;49.012;8.370;2023-02-15T17:05:58;5.10;93.30
20487;DHT22;10402;49.012;8.370;2023-02-15T17:11:16;5.00;93.30
20487;DHT22;10402;49.012;8.370;2023-02-15T17:16:32;4.90;93.20
20487;DHT22;10402;49.012;8.370;2023-02-15T17:19:07;4.90;93.20
20487;DHT22;10402;49.012;8.370;2023-02-15T17:21:38;4.90;93.20
20487;DHT22;10402;49.012;8.370;2023-02-15T17:24:05;4.80;93.20
20487;DHT22;10402;49.012;8.370;2023-02-15T17:26:33;4.80;93.30
20487;DHT22;10402;49.012;8.370;2023-02-15T17:29:11;4.80;93.30
20487;DHT22;10402;49.012;8.370;2023-02-15T17:31:39;4.70;93.30
20487;DHT22;10402;49.012;8.370;2023-02-15T17:34:05;4.70;93.30
20487;DHT22;10402;49.012;8.370;2023-02-15T17:36:31;4.70;93.40
20487;DHT22;10402;49.012;8.370;2023-02-15T17:41:30;4.70;93.40
20487;DHT22;10402;49.012;8.370;2023-02-15T17:43:57;4.60;93.40
20487;DHT22;10402;49.012;8.370;2023-02-15T17:46:23;4.60;93.40
20487;DHT22;10402;49.012;8.370;2023-02-15T17:48:51;4.60;93.40
20487;DHT22;10402;49.012;8.370;2023-02-15T17:51:18;4.60;93.50
20487;DHT22;10402;49.012;8.370;2023-02-15T17:53:45;4.60;93.50
20487;DHT22;10402;49.012;8.370;2023-02-15T17:56:35;4.60;93.50
20487;DHT22;10402;49.012;8.370;2023-02-15T17:59:01;4.60;93.50
20487;DHT22;10402;49.012;8.370;2023-02-15T18:01:32;4.50;93.50
20487;DHT22;10402;49.012;8.370;2023-02-15T18:04:17;4.50;93.40
20487;DHT22;10402;49.012;8.370;2023-02-15T18:07:00;4.50;93.40
20487;DHT22;10402;49.012;8.370;2023-02-15T18:09:44;4.50;93.50
20487;DHT22;10402;49.012;8.370;2023-02-15T18:12:33;4.50;93.40
20487;DHT22;10402;49.012;8.370;2023-02-15T18:15:03;4.50;93.40
20487;DHT22;10402;49.012;8.370;2023-02-15T18:17:34;4.40;93.40
20487;DHT22;10402;49.012;8.370;2023-02-15T18:20:02;4.50;93.50
20487;DHT22;10402;49.012;8.370;2023-02-15T18:22:31;4.40;93.50
20487;DHT22;10402;49.012;8.370;2023-02-15T18:24:56;4.40;93.50
20487;DHT22;10402;49.012;8.370;2023-02-15T18:27:22;4.40;93.50
20487;DHT22;10402;49.012;8.370;2023-02-15T18:29:48;4.40;93.50
20487;DHT22;10402;49.012;8.370;2023-02-15T18:32:17;4.40;93.50
20487;DHT22;10402;49.012;8.370;2023-02-15T18:34:43;4.40;93.50
20487;DHT22;10402;49.012;8.370;2023-02-15T18:37:18;4.40;93.50
20487;DHT22;10402;49.012;8.370;2023-02-15T18:39:48;4.30;93.50
20487;DHT22;10402;49.012;8.370;2023-02-15T18:42:24;4.30;93.60
20487;DHT22;10402;49.012;8.370;2023-02-15T18:44:55;4.30;93.60
20487;DHT22;10402;49.012;8.370;2023-02-15T18:47:21;4.20;93.70
20487;DHT22;10402;49.012;8.370;2023-02-15T18:49:46;4.20;93.70
20487;DHT22;10402;49.012;8.370;2023-02-15T18:52:17;4.20;93.70
20487;DHT22;10402;49.012;8.370;2023-02-15T18:54:44;4.20;93.70
20487;DHT22;10402;49.012;8.370;2023-02-15T18:57:12;4.20;93.70
20487;DHT22;10402;49.012;8.370;2023-02-15T18:59:38;4.20;93.70
20487;DHT22;10402;49.012;8.370;2023-02-15T19:02:11;4.20;93.70
20487;DHT22;10402;49.012;8.370;2023-02-15T19:04:36;4.10;93.70